createdAt,value
2024-05-09T04:00:37.739Z,6.90
2024-05-09T04:04:51.888Z,6.86
2024-05-09T04:09:05.357Z,6.84
2024-05-09T04:13:17.571Z,6.89
2024-05-09T04:17:29.985Z,6.91
2024-05-09T04:21:42.268Z,7.00
2024-05-09T04:25:54.537Z,7.02
2024-05-09T04:30:12.220Z,7.07
2024-05-09T04:34:27.942Z,7.14
2024-05-09T04:38:40.354Z,7.22
2024-05-09T04:42:52.585Z,7.23
2024-05-09T04:47:04.898Z,7.32
2024-05-09T04:51:17.190Z,7.31
2024-05-09T04:55:29.463Z,7.40
2024-05-09T04:59:41.726Z,7.50
2024-05-09T05:03:55.857Z,7.50
2024-05-09T05:08:17.139Z,7.65
2024-05-09T05:12:48.990Z,7.76
2024-05-09T05:17:01.222Z,7.92
2024-05-09T05:21:13.569Z,7.96
2024-05-09T05:25:25.835Z,8.16
2024-05-09T05:29:38.121Z,8.23
2024-05-09T05:33:50.461Z,8.27
2024-05-09T05:38:03.435Z,8.40
2024-05-09T05:48:27.909Z,13.13
2024-05-09T05:52:40.396Z,15.99
2024-05-09T05:56:52.625Z,18.41
2024-05-09T06:01:04.934Z,19.67
2024-05-09T06:05:17.862Z,20.34
2024-05-09T06:09:30.106Z,20.91
2024-05-09T06:13:45.464Z,21.72
2024-05-09T06:17:57.938Z,22.01
2024-05-09T06:22:11.164Z,21.96
2024-05-09T06:26:23.478Z,22.44
2024-05-09T06:30:42.144Z,22.49
2024-05-09T06:34:55.439Z,22.27
2024-05-09T06:39:10.085Z,21.48
2024-05-09T06:43:22.369Z,20.62
2024-05-09T06:47:34.741Z,19.39
2024-05-09T06:51:47.166Z,18.43
2024-05-09T06:55:59.449Z,17.88
2024-05-09T07:00:15.675Z,16.99
2024-05-09T07:04:34.654Z,16.78
2024-05-09T07:08:48.740Z,15.98
2024-05-09T07:13:01.716Z,16.54
2024-05-09T07:17:14.312Z,16.78
2024-05-09T07:21:26.822Z,16.73
2024-05-09T07:25:40.121Z,17.03
2024-05-09T07:29:52.412Z,17.19
2024-05-09T07:34:04.798Z,16.89
2024-05-09T07:38:17.142Z,17.69
2024-05-09T07:42:29.435Z,17.72
2024-05-09T07:53:00.863Z,17.75
2024-05-09T07:55:31.635Z,17.33
2024-05-09T07:59:44.107Z,17.49
2024-05-09T08:03:56.594Z,17.77
2024-05-09T08:08:11.335Z,17.58
2024-05-09T08:12:23.724Z,17.45
2024-05-09T08:16:35.957Z,17.38
2024-05-09T08:20:49.837Z,17.64
2024-05-09T08:25:02.142Z,17.70
2024-05-09T08:29:14.794Z,17.46
2024-05-09T08:33:27.337Z,17.15
2024-05-09T08:37:40.703Z,17.53
2024-05-09T08:41:57.488Z,17.09
2024-05-09T08:46:10.074Z,16.94
2024-05-09T08:50:31.938Z,17.06
2024-05-09T08:54:50.548Z,17.02
2024-05-09T08:59:04.125Z,16.69
2024-05-09T09:03:19.627Z,16.80
2024-05-09T09:07:33.663Z,16.87
2024-05-09T09:11:46.015Z,16.62
2024-05-09T09:15:59.386Z,17.03
2024-05-09T09:20:16.573Z,16.72
2024-05-09T09:24:31.723Z,16.59
2024-05-09T09:28:45.010Z,16.66
2024-05-09T09:32:57.336Z,17.11
2024-05-09T09:37:11.749Z,17.39
2024-05-09T09:41:30.657Z,17.29
2024-05-09T09:45:44.472Z,17.19
2024-05-09T09:49:58.780Z,17.04
2024-05-09T09:54:12.711Z,17.15
2024-05-09T09:58:25.519Z,17.36
2024-05-09T10:02:37.986Z,17.48
2024-05-09T10:06:53.273Z,17.55
2024-05-09T10:11:07.002Z,17.77
2024-05-09T10:15:20.165Z,17.94
2024-05-09T10:19:34.217Z,17.85
2024-05-09T10:24:03.735Z,17.46
2024-05-09T10:28:16.161Z,17.41
2024-05-09T10:32:29.201Z,17.41
2024-05-09T10:36:43.810Z,17.53
2024-05-09T10:41:00.574Z,18.00
2024-05-09T10:45:16.148Z,18.33
2024-05-09T10:49:28.524Z,18.52
2024-05-09T10:53:45.513Z,18.54
2024-05-09T10:57:57.890Z,18.32
2024-05-09T11:02:11.370Z,17.81
2024-05-09T11:06:23.920Z,18.15
2024-05-09T11:10:36.529Z,18.45
2024-05-09T11:14:55.263Z,18.47
2024-05-09T11:19:13.086Z,18.53
2024-05-09T11:23:29.984Z,18.34
2024-05-09T11:27:42.760Z,18.58
2024-05-09T11:31:55.095Z,18.72
2024-05-09T11:36:08.677Z,18.34
2024-05-09T11:40:25.535Z,18.73
2024-05-09T11:44:44.188Z,18.94
2024-05-09T11:48:56.594Z,19.15
2024-05-09T11:53:09.028Z,19.20
2024-05-09T11:57:21.265Z,19.32
2024-05-09T12:01:33.632Z,19.13
2024-05-09T12:05:46.169Z,19.24
2024-05-09T12:09:58.574Z,19.41
2024-05-09T12:14:10.920Z,19.70
2024-05-09T12:18:23.251Z,19.63
2024-05-09T12:22:35.530Z,19.73
2024-05-09T12:26:47.875Z,19.66
2024-05-09T12:31:00.139Z,20.03
2024-05-09T12:35:12.390Z,19.82
2024-05-09T12:39:24.573Z,20.01
2024-05-09T12:43:36.818Z,19.53
2024-05-09T12:47:49.424Z,19.45
2024-05-09T12:52:01.731Z,19.67
2024-05-09T12:56:14.052Z,19.80
2024-05-09T13:00:31.706Z,19.93
2024-05-09T13:04:46.368Z,20.16
2024-05-09T13:08:58.929Z,20.27
2024-05-09T13:13:11.510Z,20.24
2024-05-09T13:17:23.938Z,20.26
2024-05-09T13:21:36.317Z,20.46
2024-05-09T13:25:48.583Z,20.56
2024-05-09T13:30:00.869Z,20.66
2024-05-09T13:34:13.161Z,20.37
2024-05-09T13:38:25.632Z,20.51
2024-05-09T13:42:37.906Z,20.65
2024-05-09T13:46:50.256Z,20.51
2024-05-09T13:51:02.504Z,20.57
2024-05-09T13:55:15.041Z,20.45
2024-05-09T13:59:27.543Z,20.29
2024-05-09T14:03:40.090Z,20.36
2024-05-09T14:07:52.423Z,20.37
2024-05-09T14:12:04.947Z,20.65
2024-05-09T14:16:17.316Z,20.72
2024-05-09T14:20:31.779Z,21.01
2024-05-09T14:24:44.954Z,20.81
2024-05-09T14:28:57.221Z,20.67
2024-05-09T14:33:09.800Z,20.92
2024-05-09T14:37:22.353Z,20.96
2024-05-09T14:41:34.643Z,20.71
2024-05-09T14:45:47.066Z,20.86
2024-05-09T14:49:59.344Z,20.85
2024-05-09T14:54:11.590Z,20.70
2024-05-09T14:58:23.977Z,20.52
2024-05-09T15:02:36.380Z,20.74
2024-05-09T15:06:48.772Z,20.83
2024-05-09T15:11:01.111Z,21.03
2024-05-09T15:15:13.399Z,20.71
2024-05-09T15:19:25.712Z,20.77
2024-05-09T15:23:38.152Z,20.56
2024-05-09T15:27:50.421Z,20.74
2024-05-09T15:32:02.681Z,20.69
2024-05-09T15:36:14.938Z,20.67
2024-05-09T15:40:36.104Z,20.61
2024-05-09T15:44:52.819Z,20.71
2024-05-09T15:49:05.234Z,20.60
2024-05-09T15:53:17.526Z,20.34
2024-05-09T15:57:29.798Z,20.66
2024-05-09T16:01:42.281Z,20.51
2024-05-09T16:05:57.463Z,20.44
2024-05-09T16:10:13.184Z,20.52
2024-05-09T16:14:28.557Z,20.45
2024-05-09T16:18:42.277Z,20.31
2024-05-09T16:22:54.585Z,20.53
2024-05-09T16:27:06.816Z,20.31
2024-05-09T16:31:19.111Z,20.40
2024-05-09T16:35:31.369Z,20.34
2024-05-09T16:39:43.635Z,20.34
2024-05-09T16:43:57.950Z,20.33
2024-05-09T16:48:11.291Z,20.27
2024-05-09T16:52:23.550Z,20.22
2024-05-09T16:56:35.801Z,20.07
2024-05-09T17:00:48.173Z,20.07
2024-05-09T17:05:00.674Z,19.96
2024-05-09T17:09:15.653Z,19.97
2024-05-09T17:13:32.299Z,19.89
2024-05-09T17:17:44.693Z,19.86
2024-05-09T17:21:57.097Z,19.74
2024-05-09T17:26:09.390Z,19.63
2024-05-09T17:30:29.024Z,19.63
2024-05-09T17:34:47.067Z,19.33
2024-05-09T17:38:59.614Z,19.16
2024-05-09T17:43:11.940Z,18.92
2024-05-09T17:47:24.325Z,18.78
2024-05-09T17:51:36.818Z,18.61
2024-05-09T17:55:49.130Z,18.38
2024-05-09T18:00:01.396Z,18.32
2024-05-09T18:04:14.245Z,18.23
2024-05-09T18:08:26.594Z,18.08
2024-05-09T18:12:38.862Z,18.01
2024-05-09T18:16:51.063Z,17.91
2024-05-09T18:21:03.249Z,17.76
2024-05-09T18:25:15.610Z,17.65
2024-05-09T18:29:27.880Z,17.56
2024-05-09T18:33:40.275Z,17.43
2024-05-09T18:37:53.693Z,17.21
2024-05-09T18:42:06.149Z,17.07
2024-05-09T18:46:18.473Z,16.86
2024-05-09T18:50:35.809Z,16.72
2024-05-09T18:54:51.927Z,16.43
2024-05-09T18:59:04.157Z,16.27
2024-05-09T19:03:16.562Z,16.23
2024-05-09T19:07:29.016Z,15.99
2024-05-09T19:11:41.331Z,15.80
2024-05-09T19:15:53.815Z,15.65
2024-05-09T19:20:09.270Z,15.37
2024-05-09T19:24:26.792Z,15.33
2024-05-09T19:28:40.470Z,15.16
2024-05-09T19:32:52.856Z,15.00
2024-05-09T19:37:05.388Z,14.94
2024-05-09T19:41:18.296Z,14.82
2024-05-09T19:45:30.745Z,14.77
2024-05-09T19:49:43.449Z,14.66
2024-05-09T19:53:55.780Z,14.52
2024-05-09T19:58:11.242Z,14.44
2024-05-09T20:07:13.098Z,14.31
2024-05-09T20:11:26.370Z,14.12
2024-05-09T20:15:40.026Z,13.95
2024-05-09T20:19:52.516Z,13.80
2024-05-09T20:24:04.789Z,13.71
2024-05-09T20:28:17.513Z,13.58
2024-05-09T20:32:29.979Z,13.47
2024-05-09T20:36:42.302Z,13.40
2024-05-09T20:40:54.749Z,13.28
2024-05-09T20:45:07.251Z,13.11
2024-05-09T20:49:19.782Z,13.12
2024-05-09T20:53:32.162Z,12.98
2024-05-09T20:57:44.455Z,12.86
2024-05-09T21:01:57.134Z,12.84
2024-05-09T21:06:09.595Z,12.70
2024-05-09T21:10:22.930Z,12.63
2024-05-09T21:14:35.457Z,12.59
2024-05-09T21:18:47.700Z,12.45
2024-05-09T21:23:00.054Z,12.42
2024-05-09T21:27:12.964Z,12.26
